»·PEaware :: N6262K KSBP-KASE

N6262K :: KSBP-KASE

FLIGHT INFORMATION

Flight Status: Arrived
Operator: Privately registered:
United States
More flights under this callsign
Pilot: Judson K. (15650)
Aircraft: SOCATA TBM-900
(TBM9)
More flights by this aircraft type
Origin: KSBP San Luis Co Regl
United States
Destination: KASE Aspen-Pitkin Co/Sardy
United States
More flights between these airports :: More routes between these airports
Route: +RZS V12 HEC V21 MMM V8 JNC V134 DBL
File this flight plan on PilotEdge
Remarks:
Altitude:
(Current/Filed)
27,000ft
Speed:
(Current/Filed)
320kts
Departed: 08-Nov-19 10:28 AM
Arrived: 08-Nov-19 01:41 PM
Distance/Time
Traveled:
699nm/3:12
Distance/Time
To Go:
Arrived

Flight Plot

Page will automatically refresh every two minutes.

Flight plan parsing failed; only flown route is shown


Map Options




Map Legend


Flown Route
Filed Route
Departure Airport
Arrival Airport
Navaid (VOR, NDB)
Fix

Horizontal Profiles

Position Reports

Time Latitude Longitude Heading Altitude Ground
Speed
08-Nov-19 09:42 35.240006 -120.642471 123 215ft 0kts
08-Nov-19 09:43 35.239876 -120.642280 161 215ft 0kts
08-Nov-19 09:44 35.239875 -120.642280 161 215ft 0kts
08-Nov-19 09:45 35.239875 -120.642280 161 215ft 0kts
08-Nov-19 09:46 35.239875 -120.642280 161 215ft 0kts
08-Nov-19 09:47 35.239875 -120.642280 161 215ft 0kts
08-Nov-19 09:48 35.239875 -120.642280 161 215ft 0kts
08-Nov-19 09:49 35.239875 -120.642280 161 215ft 0kts
08-Nov-19 09:50 35.239875 -120.642279 161 215ft 0kts
08-Nov-19 09:51 35.239875 -120.642279 161 215ft 0kts
08-Nov-19 09:52 35.239875 -120.642279 161 215ft 0kts
08-Nov-19 09:53 35.239875 -120.642279 161 215ft 0kts
08-Nov-19 09:54 35.239875 -120.642279 161 215ft 0kts
08-Nov-19 09:55 35.239875 -120.642279 161 215ft 0kts
08-Nov-19 09:56 35.239875 -120.642279 161 215ft 0kts
08-Nov-19 09:57 35.239875 -120.642279 161 215ft 0kts
08-Nov-19 09:58 35.239875 -120.642279 161 215ft 0kts
08-Nov-19 09:59 35.239875 -120.642279 161 215ft 0kts
08-Nov-19 10:00 35.239875 -120.642279 161 215ft 0kts
08-Nov-19 10:01 35.239875 -120.642279 161 215ft 0kts
08-Nov-19 10:02 35.239875 -120.642279 161 215ft 0kts
08-Nov-19 10:03 35.239875 -120.642279 161 215ft 0kts
08-Nov-19 10:04 35.239875 -120.642279 161 215ft 0kts
08-Nov-19 10:05 35.239875 -120.642279 161 215ft 0kts
08-Nov-19 10:06 35.239875 -120.642279 161 215ft 0kts
08-Nov-19 10:07 35.239875 -120.642279 161 215ft 0kts
08-Nov-19 10:08 35.239875 -120.642279 161 215ft 0kts
08-Nov-19 10:09 35.239875 -120.642279 161 215ft 0kts
08-Nov-19 10:10 35.239875 -120.642279 161 215ft 0kts
08-Nov-19 10:11 35.239875 -120.642279 161 215ft 0kts
08-Nov-19 10:12 35.239875 -120.642279 161 215ft 0kts
08-Nov-19 10:13 35.239875 -120.642279 161 215ft 0kts
08-Nov-19 10:14 35.239875 -120.642279 161 215ft 0kts
08-Nov-19 10:15 35.239875 -120.642279 161 215ft 0kts
08-Nov-19 10:17 35.239875 -120.642279 161 215ft 0kts
08-Nov-19 10:18 35.239875 -120.642279 161 215ft 0kts
08-Nov-19 10:19 35.239811 -120.642253 161 215ft 4kts
08-Nov-19 10:20 35.239522 -120.642458 216 215ft 0kts
08-Nov-19 10:21 35.239178 -120.642452 143 215ft 8kts
08-Nov-19 10:22 35.236827 -120.638096 125 215ft 20kts
08-Nov-19 10:23 35.233730 -120.632741 126 215ft 14kts
08-Nov-19 10:24 35.233188 -120.632328 211 215ft 0kts
08-Nov-19 10:25 35.233188 -120.632328 211 215ft 0kts
08-Nov-19 10:26 35.233188 -120.632328 211 215ft 0kts
08-Nov-19 10:27 35.232831 -120.632724 243 215ft 11kts
08-Nov-19 10:28 35.247657 -120.660620 302 989ft 134kts
08-Nov-19 10:29 35.268116 -120.700317 302 3005ft 138kts
08-Nov-19 10:30 35.288261 -120.740378 302 4912ft 142kts
08-Nov-19 10:31 35.315114 -120.741725 87 6582ft 140kts
08-Nov-19 10:32 35.295601 -120.700098 122 8112ft 149kts
08-Nov-19 10:33 35.273660 -120.658885 123 9732ft 144kts
08-Nov-19 10:34 35.249469 -120.619526 128 11173ft 149kts
08-Nov-19 10:35 35.220854 -120.583471 135 13033ft 148kts
08-Nov-19 10:35 35.195782 -120.554396 134 14441ft 150kts
08-Nov-19 10:37 35.160212 -120.513304 134 16226ft 153kts
08-Nov-19 10:38 35.129165 -120.477501 134 17612ft 155kts
08-Nov-19 10:38 35.109008 -120.442637 104 18657ft 155kts
08-Nov-19 10:40 35.097081 -120.382262 103 20033ft 157kts
08-Nov-19 10:41 35.087064 -120.329964 103 21110ft 159kts
08-Nov-19 10:41 35.078609 -120.285723 103 21960ft 160kts
08-Nov-19 10:42 35.068403 -120.232393 103 22902ft 162kts
08-Nov-19 10:43 35.058052 -120.178427 102 23775ft 164kts
08-Nov-19 10:44 35.047588 -120.124017 102 24582ft 165kts
08-Nov-19 10:45 35.037013 -120.069178 102 25328ft 166kts
08-Nov-19 10:46 35.026367 -120.014125 101 26023ft 167kts
08-Nov-19 10:47 35.015618 -119.958666 101 26664ft 168kts
08-Nov-19 10:48 35.004769 -119.902839 101 27232ft 170kts
08-Nov-19 10:49 34.993010 -119.842566 101 27249ft 193kts
08-Nov-19 10:50 34.980064 -119.776428 101 27243ft 206kts
08-Nov-19 10:51 34.966464 -119.707037 101 27237ft 212kts
08-Nov-19 10:52 34.952558 -119.636300 100 27229ft 215kts
08-Nov-19 10:53 34.938519 -119.565156 100 27217ft 217kts
08-Nov-19 10:54 34.924322 -119.493449 100 27207ft 218kts
08-Nov-19 10:55 34.909559 -119.418988 101 27235ft 232kts
08-Nov-19 10:56 34.893978 -119.340956 102 27255ft 240kts
08-Nov-19 10:57 34.878058 -119.261409 102 27277ft 245kts
08-Nov-19 10:58 34.861717 -119.180038 102 27267ft 248kts
08-Nov-19 10:59 34.845217 -119.098169 102 27257ft 249kts
08-Nov-19 11:00 34.828543 -119.015747 102 27252ft 250kts
08-Nov-19 11:01 34.811845 -118.933476 102 27286ft 250kts
08-Nov-19 11:02 34.795114 -118.851403 103 27328ft 250kts
08-Nov-19 11:03 34.778207 -118.768816 103 27365ft 252kts
08-Nov-19 11:04 34.761077 -118.685422 103 27356ft 254kts
08-Nov-19 11:05 34.743805 -118.601644 103 27348ft 255kts
08-Nov-19 11:06 34.726442 -118.517738 103 27339ft 256kts
08-Nov-19 11:07 34.709013 -118.433829 103 27333ft 256kts
08-Nov-19 11:08 34.691541 -118.350021 103 27332ft 256kts
08-Nov-19 11:09 34.674010 -118.266231 104 27338ft 256kts
08-Nov-19 11:10 34.656333 -118.182047 104 27334ft 257kts
08-Nov-19 11:11 34.638603 -118.097932 104 27330ft 257kts
08-Nov-19 11:12 34.637156 -118.011807 83 27327ft 258kts
08-Nov-19 11:13 34.646594 -117.925299 83 27323ft 258kts
08-Nov-19 11:14 34.655996 -117.838810 83 27318ft 258kts
08-Nov-19 11:15 34.665044 -117.752376 83 27322ft 257kts
08-Nov-19 11:16 34.674559 -117.666145 83 27324ft 257kts
08-Nov-19 11:17 34.683753 -117.579872 83 27328ft 257kts
08-Nov-19 11:18 34.692887 -117.493420 83 27326ft 257kts
08-Nov-19 11:19 34.701980 -117.406878 83 27327ft 257kts
08-Nov-19 11:20 34.710996 -117.320489 84 27331ft 257kts
08-Nov-19 11:21 34.719977 -117.233942 84 27331ft 258kts
08-Nov-19 11:22 34.728925 -117.147069 84 27329ft 258kts
08-Nov-19 11:23 34.737802 -117.060158 83 27324ft 259kts
08-Nov-19 11:24 34.746599 -116.973148 83 27317ft 260kts
08-Nov-19 11:25 34.755362 -116.885875 83 27311ft 261kts
08-Nov-19 11:26 34.764151 -116.797931 83 27311ft 261kts
08-Nov-19 11:27 34.772874 -116.709920 83 27310ft 262kts
08-Nov-19 11:28 34.781544 -116.621807 83 27310ft 262kts
08-Nov-19 11:29 34.790169 -116.533499 83 27309ft 262kts
08-Nov-19 11:30 34.809191 -116.449389 52 27312ft 265kts
08-Nov-19 11:31 34.858709 -116.382519 48 27311ft 266kts
08-Nov-19 11:32 34.909155 -116.316496 49 27323ft 265kts
08-Nov-19 11:33 34.959465 -116.250591 49 27324ft 264kts
08-Nov-19 11:34 35.009233 -116.185263 50 27319ft 261kts
08-Nov-19 11:35 35.058348 -116.120660 50 27310ft 258kts
08-Nov-19 11:36 35.106983 -116.056579 50 27310ft 256kts
08-Nov-19 11:37 35.155290 -115.992808 50 27311ft 255kts
08-Nov-19 11:38 35.203306 -115.929307 50 27310ft 254kts
08-Nov-19 11:39 35.251353 -115.865641 50 27321ft 254kts
08-Nov-19 11:40 35.299177 -115.802163 50 27338ft 253kts
08-Nov-19 11:41 35.346867 -115.738732 50 27355ft 253kts
08-Nov-19 11:42 35.394607 -115.675114 50 27371ft 253kts
08-Nov-19 11:43 35.442421 -115.611280 50 27372ft 253kts
08-Nov-19 11:44 35.490070 -115.547544 50 27372ft 253kts
08-Nov-19 11:45 35.537656 -115.483703 50 27372ft 253kts
08-Nov-19 11:46 35.585353 -115.419678 50 27371ft 253kts
08-Nov-19 11:47 35.632911 -115.355726 50 27371ft 253kts
08-Nov-19 11:48 35.680639 -115.291430 50 27377ft 254kts
08-Nov-19 11:49 35.728300 -115.227078 51 27376ft 254kts
08-Nov-19 11:50 35.776095 -115.162411 50 27372ft 255kts
08-Nov-19 11:51 35.823794 -115.097752 50 27365ft 255kts
08-Nov-19 11:52 35.871702 -115.032685 50 27357ft 256kts
08-Nov-19 11:53 35.919693 -114.967382 50 27349ft 257kts
08-Nov-19 11:54 35.967749 -114.901866 50 27346ft 257kts
08-Nov-19 11:55 36.022096 -114.844042 35 27329ft 262kts
08-Nov-19 11:56 36.084312 -114.797200 34 27327ft 262kts
08-Nov-19 11:57 36.146728 -114.750285 34 27328ft 262kts
08-Nov-19 11:58 36.208943 -114.703434 34 27328ft 262kts
08-Nov-19 11:59 36.271411 -114.656297 34 27328ft 262kts
08-Nov-19 12:00 36.333524 -114.609350 34 27327ft 262kts
08-Nov-19 12:01 36.395768 -114.562210 34 27327ft 262kts
08-Nov-19 12:02 36.457988 -114.514990 34 27327ft 262kts
08-Nov-19 12:03 36.520109 -114.467773 34 27327ft 262kts
08-Nov-19 12:04 36.582203 -114.420473 34 27337ft 262kts
08-Nov-19 12:05 36.644459 -114.372961 34 27359ft 261kts
08-Nov-19 12:06 36.706561 -114.325479 35 27381ft 261kts
08-Nov-19 12:07 36.767482 -114.276293 48 27385ft 258kts
08-Nov-19 12:08 36.805714 -114.201402 61 27413ft 256kts
08-Nov-19 12:09 36.842309 -114.125002 61 27412ft 256kts
08-Nov-19 12:10 36.878880 -114.048422 61 27411ft 257kts
08-Nov-19 12:11 36.915546 -113.971467 61 27411ft 257kts
08-Nov-19 12:12 36.952096 -113.894576 61 27411ft 257kts
08-Nov-19 12:13 36.988579 -113.817598 60 27410ft 257kts
08-Nov-19 12:14 37.024906 -113.740767 60 27409ft 256kts
08-Nov-19 12:15 37.061330 -113.663569 59 27409ft 257kts
08-Nov-19 12:16 37.097656 -113.586400 59 27408ft 257kts
08-Nov-19 12:17 37.134025 -113.509036 59 27411ft 258kts
08-Nov-19 12:18 37.170570 -113.431109 59 27410ft 258kts
08-Nov-19 12:19 37.206987 -113.353185 59 27410ft 259kts
08-Nov-19 12:20 37.243384 -113.275103 59 27414ft 259kts
08-Nov-19 12:21 37.279725 -113.197004 59 27423ft 259kts
08-Nov-19 12:22 37.316092 -113.118670 59 27441ft 259kts
08-Nov-19 12:23 37.352338 -113.040407 59 27455ft 258kts
08-Nov-19 12:24 37.388575 -112.961956 59 27460ft 259kts
08-Nov-19 12:25 37.424710 -112.883561 58 27464ft 259kts
08-Nov-19 12:26 37.461002 -112.804635 58 27466ft 260kts
08-Nov-19 12:27 37.497257 -112.725608 58 27469ft 260kts
08-Nov-19 12:29 37.533565 -112.646252 58 27484ft 260kts
08-Nov-19 12:30 37.569592 -112.567314 58 27513ft 260kts
08-Nov-19 12:31 37.605566 -112.488303 58 27537ft 260kts
08-Nov-19 12:32 37.641658 -112.408839 58 27538ft 260kts
08-Nov-19 12:33 37.677698 -112.329287 59 27540ft 260kts
08-Nov-19 12:34 37.714162 -112.250141 58 27539ft 261kts
08-Nov-19 12:35 37.750969 -112.170749 58 27539ft 261kts
08-Nov-19 12:36 37.787662 -112.091411 58 27539ft 261kts
08-Nov-19 12:37 37.824362 -112.011866 58 27538ft 261kts
08-Nov-19 12:38 37.860962 -111.932341 58 27538ft 261kts
08-Nov-19 12:39 37.897514 -111.852727 58 27537ft 261kts
08-Nov-19 12:40 37.933974 -111.773115 58 27537ft 261kts
08-Nov-19 12:41 37.970336 -111.693520 58 27537ft 261kts
08-Nov-19 12:42 38.006715 -111.613694 58 27537ft 261kts
08-Nov-19 12:43 38.042953 -111.533973 58 27527ft 261kts
08-Nov-19 12:44 38.079302 -111.453809 58 27507ft 261kts
08-Nov-19 12:45 38.115547 -111.373676 58 27490ft 262kts
08-Nov-19 12:46 38.151872 -111.293161 59 27487ft 262kts
08-Nov-19 12:47 38.188189 -111.212464 59 27486ft 262kts
08-Nov-19 12:47 38.218269 -111.145475 59 27486ft 262kts
08-Nov-19 12:49 38.260606 -111.050918 58 27485ft 262kts
08-Nov-19 12:50 38.296698 -110.970115 58 27485ft 262kts
08-Nov-19 12:50 38.326805 -110.902551 58 27485ft 262kts
08-Nov-19 12:51 38.362869 -110.821450 58 27485ft 262kts
08-Nov-19 12:53 38.404885 -110.726689 58 27484ft 262kts
08-Nov-19 12:53 38.431636 -110.656992 63 27484ft 263kts
08-Nov-19 12:54 38.461471 -110.571207 63 27484ft 263kts
08-Nov-19 12:55 38.491116 -110.485598 63 27456ft 264kts
08-Nov-19 12:56 38.520799 -110.399607 63 27456ft 263kts
08-Nov-19 12:57 38.550322 -110.313835 63 27452ft 263kts
08-Nov-19 12:58 38.579769 -110.228028 63 27445ft 264kts
08-Nov-19 12:59 38.609229 -110.141935 63 27439ft 264kts
08-Nov-19 13:00 38.638656 -110.055654 63 27438ft 263kts
08-Nov-19 13:01 38.667965 -109.969468 63 27438ft 263kts
08-Nov-19 13:02 38.697189 -109.883295 63 27437ft 263kts
08-Nov-19 13:03 38.725833 -109.798577 63 27111ft 254kts
08-Nov-19 13:04 38.753847 -109.715507 63 26347ft 254kts
08-Nov-19 13:05 38.781682 -109.632710 63 25546ft 251kts
08-Nov-19 13:06 38.809112 -109.550886 63 24722ft 248kts
08-Nov-19 13:07 38.835583 -109.471661 63 24407ft 231kts
08-Nov-19 13:08 38.860489 -109.396951 63 23724ft 223kts
08-Nov-19 13:09 38.885179 -109.322708 63 22499ft 225kts
08-Nov-19 13:10 38.909682 -109.248807 63 21456ft 223kts
08-Nov-19 13:11 38.933875 -109.175668 63 20471ft 222kts
08-Nov-19 13:12 38.957590 -109.103791 63 19074ft 218kts
08-Nov-19 13:13 38.981195 -109.032299 64 17518ft 216kts
08-Nov-19 13:14 39.005448 -108.958129 63 17018ft 247kts
08-Nov-19 13:15 39.033991 -108.870937 63 17003ft 274kts
08-Nov-19 13:16 39.062662 -108.777885 71 16998ft 285kts
08-Nov-19 13:17 39.083348 -108.678652 71 16999ft 287kts
08-Nov-19 13:18 39.104141 -108.578554 71 17002ft 288kts
08-Nov-19 13:19 39.124844 -108.478449 71 17002ft 289kts
08-Nov-19 13:20 39.145452 -108.378286 71 17003ft 289kts
08-Nov-19 13:21 39.165848 -108.278694 72 17000ft 289kts
08-Nov-19 13:22 39.186363 -108.178049 72 17000ft 289kts
08-Nov-19 13:23 39.206705 -108.077761 72 17001ft 289kts
08-Nov-19 13:24 39.226968 -107.977361 72 17004ft 289kts
08-Nov-19 13:25 39.247169 -107.876799 72 17012ft 289kts
08-Nov-19 13:26 39.267265 -107.776286 72 17018ft 289kts
08-Nov-19 13:27 39.287576 -107.674269 72 17018ft 292kts
08-Nov-19 13:28 39.307602 -107.573180 72 17019ft 288kts
08-Nov-19 13:29 39.326920 -107.475157 72 16247ft 279kts
08-Nov-19 13:30 39.345901 -107.378318 72 15316ft 276kts
08-Nov-19 13:31 39.359889 -107.281206 79 14480ft 273kts
08-Nov-19 13:32 39.371120 -107.185353 79 14031ft 268kts
08-Nov-19 13:33 39.365680 -107.090615 98 13394ft 261kts
08-Nov-19 13:34 39.353656 -107.005002 98 12999ft 217kts
08-Nov-19 13:35 39.342855 -106.931343 110 12076ft 186kts
08-Nov-19 13:36 39.306335 -106.907054 165 10499ft 125kts
08-Nov-19 13:37 39.277691 -106.894134 168 9165ft 102kts
08-Nov-19 13:38 39.249941 -106.881387 162 8393ft 106kts
08-Nov-19 13:39 39.223982 -106.869263 162 7837ft 78kts
08-Nov-19 13:40 39.217171 -106.864882 4 7837ft 6kts
08-Nov-19 13:41 39.220370 -106.866372 336 7837ft 16kts
08-Nov-19 13:42 39.222564 -106.866419 226 7837ft 0kts
08-Nov-19 13:43 39.222564 -106.866419 226 7837ft 0kts
08-Nov-19 13:44 39.222564 -106.866419 226 7837ft 0kts
08-Nov-19 13:45 39.222564 -106.866419 226 7837ft 0kts
08-Nov-19 13:46 39.222564 -106.866419 226 7837ft 0kts
08-Nov-19 13:47 39.222564 -106.866419 226 7837ft 0kts
08-Nov-19 13:48 39.222564 -106.866419 226 7837ft 0kts

Navigation Log

Ident Type
Flight plan parsing failed, navigation log unavailable